sensor_id;sensor_type;location;lat;lon;timestamp;pressure;altitude;pressure_sealevel;temperature;humidity
30636;BME280;17400;52.392;9.750;2022-09-09T00:01:49;100260.31;;;16.56;100.00
30636;BME280;17400;52.392;9.750;2022-09-09T00:04:25;100258.56;;;16.49;100.00
30636;BME280;17400;52.392;9.750;2022-09-09T00:07:04;100262.38;;;16.48;100.00
30636;BME280;17400;52.392;9.750;2022-09-09T00:09:40;100260.63;;;16.42;100.00
30636;BME280;17400;52.392;9.750;2022-09-09T00:12:15;100261.59;;;16.36;100.00
30636;BME280;17400;52.392;9.750;2022-09-09T00:14:50;100261.53;;;16.31;100.00
30636;BME280;17400;52.392;9.750;2022-09-09T00:17:27;100264.50;;;16.29;100.00
30636;BME280;17400;52.392;9.750;2022-09-09T00:20:03;100258.94;;;16.24;100.00
30636;BME280;17400;52.392;9.750;2022-09-09T00:22:38;100256.72;;;16.21;100.00
30636;BME280;17400;52.392;9.750;2022-09-09T00:25:10;100256.72;;;16.21;100.00
30636;BME280;17400;52.392;9.750;2022-09-09T00:27:42;100245.94;;;16.14;100.00
30636;BME280;17400;52.392;9.750;2022-09-09T00:30:18;100256.03;;;16.14;100.00
30636;BME280;17400;52.392;9.750;2022-09-09T00:32:50;100258.19;;;16.12;100.00
30636;BME280;17400;52.392;9.750;2022-09-09T00:35:23;100255.22;;;16.13;100.00
30636;BME280;17400;52.392;9.750;2022-09-09T00:37:53;100250.91;;;16.18;100.00
30636;BME280;17400;52.392;9.750;2022-09-09T00:40:27;100254.81;;;16.22;100.00
30636;BME280;17400;52.392;9.750;2022-09-09T00:43:16;100251.59;;;16.25;100.00
30636;BME280;17400;52.392;9.750;2022-09-09T00:46:14;100255.75;;;16.27;100.00
30636;BME280;17400;52.392;9.750;2022-09-09T00:48:52;100248.88;;;16.25;100.00
30636;BME280;17400;52.392;9.750;2022-09-09T00:51:29;100253.72;;;16.23;100.00
30636;BME280;17400;52.392;9.750;2022-09-09T00:54:19;100252.31;;;16.20;100.00
30636;BME280;17400;52.392;9.750;2022-09-09T00:56:57;100250.44;;;16.21;100.00
30636;BME280;17400;52.392;9.750;2022-09-09T00:59:32;100248.19;;;16.18;100.00
30636;BME280;17400;52.392;9.750;2022-09-09T01:02:09;100249.25;;;16.16;100.00
30636;BME280;17400;52.392;9.750;2022-09-09T01:04:41;100254.81;;;16.22;100.00
30636;BME280;17400;52.392;9.750;2022-09-09T01:07:15;100255.31;;;16.19;100.00
30636;BME280;17400;52.392;9.750;2022-09-09T01:09:51;100262.34;;;16.14;100.00
30636;BME280;17400;52.392;9.750;2022-09-09T01:12:26;100257.84;;;16.08;100.00
30636;BME280;17400;52.392;9.750;2022-09-09T01:15:03;100259.50;;;16.09;100.00
30636;BME280;17400;52.392;9.750;2022-09-09T01:17:37;100255.88;;;16.04;100.00
30636;BME280;17400;52.392;9.750;2022-09-09T01:20:13;100257.84;;;16.08;100.00
30636;BME280;17400;52.392;9.750;2022-09-09T01:22:51;100249.19;;;16.11;100.00
30636;BME280;17400;52.392;9.750;2022-09-09T01:25:30;100238.81;;;16.13;100.00
30636;BME280;17400;52.392;9.750;2022-09-09T01:28:03;100248.59;;;16.09;100.00
30636;BME280;17400;52.392;9.750;2022-09-09T01:30:33;100243.47;;;16.13;100.00
30636;BME280;17400;52.392;9.750;2022-09-09T01:33:02;100237.75;;;16.14;100.00
30636;BME280;17400;52.392;9.750;2022-09-09T01:35:37;100232.53;;;16.13;100.00
30636;BME280;17400;52.392;9.750;2022-09-09T01:38:07;100235.03;;;16.14;100.00
30636;BME280;17400;52.392;9.750;2022-09-09T01:40:35;100238.25;;;16.11;100.00
30636;BME280;17400;52.392;9.750;2022-09-09T01:43:04;100244.03;;;16.15;100.00
30636;BME280;17400;52.392;9.750;2022-09-09T01:45:33;100241.81;;;16.12;100.00
30636;BME280;17400;52.392;9.750;2022-09-09T01:48:02;100241.22;;;16.10;100.00
30636;BME280;17400;52.392;9.750;2022-09-09T01:50:30;100230.69;;;16.02;100.00
30636;BME280;17400;52.392;9.750;2022-09-09T01:52:59;100240.78;;;16.01;100.00
30636;BME280;17400;52.392;9.750;2022-09-09T01:55:30;100248.38;;;15.99;100.00
30636;BME280;17400;52.392;9.750;2022-09-09T01:58:12;100245.91;;;15.97;100.00
30636;BME280;17400;52.392;9.750;2022-09-09T02:00:51;100241.75;;;15.95;100.00
30636;BME280;17400;52.392;9.750;2022-09-09T02:03:27;100235.59;;;15.99;100.00
30636;BME280;17400;52.392;9.750;2022-09-09T02:06:03;100242.94;;;15.99;100.00
30636;BME280;17400;52.392;9.750;2022-09-09T02:08:38;100253.28;;;15.97;100.00
30636;BME280;17400;52.392;9.750;2022-09-09T02:11:11;100237.63;;;15.92;100.00
30636;BME280;17400;52.392;9.750;2022-09-09T02:13:43;100237.78;;;15.86;100.00
30636;BME280;17400;52.392;9.750;2022-09-09T02:16:15;100247.38;;;15.88;100.00
30636;BME280;17400;52.392;9.750;2022-09-09T02:18:48;100242.41;;;15.85;100.00
30636;BME280;17400;52.392;9.750;2022-09-09T02:21:18;100241.09;;;15.88;100.00
30636;BME280;17400;52.392;9.750;2022-09-09T02:23:47;100240.41;;;15.80;100.00
30636;BME280;17400;52.392;9.750;2022-09-09T02:26:19;100238.59;;;15.86;100.00
30636;BME280;17400;52.392;9.750;2022-09-09T02:28:53;100241.00;;;15.82;100.00
30636;BME280;17400;52.392;9.750;2022-09-09T02:31:24;100236.09;;;15.85;100.00
30636;BME280;17400;52.392;9.750;2022-09-09T02:33:56;100236.22;;;15.78;100.00
30636;BME280;17400;52.392;9.750;2022-09-09T02:36:28;100239.81;;;15.78;100.00
30636;BME280;17400;52.392;9.750;2022-09-09T02:38:57;100231.16;;;15.81;100.00
30636;BME280;17400;52.392;9.750;2022-09-09T02:41:29;100233.88;;;15.81;100.00
30636;BME280;17400;52.392;9.750;2022-09-09T02:44:00;100231.75;;;15.84;100.00
30636;BME280;17400;52.392;9.750;2022-09-09T02:46:52;100221.75;;;15.89;100.00
30636;BME280;17400;52.392;9.750;2022-09-09T02:49:32;100232.06;;;15.87;100.00
30636;BME280;17400;52.392;9.750;2022-09-09T02:52:08;100231.81;;;15.89;100.00
30636;BME280;17400;52.392;9.750;2022-09-09T02:54:38;100228.50;;;15.87;100.00
30636;BME280;17400;52.392;9.750;2022-09-09T02:57:10;100233.13;;;15.86;100.00
30636;BME280;17400;52.392;9.750;2022-09-09T02:59:40;100227.44;;;15.88;100.00
30636;BME280;17400;52.392;9.750;2022-09-09T03:02:08;100239.44;;;15.87;100.00
30636;BME280;17400;52.392;9.750;2022-09-09T03:04:37;100241.91;;;15.88;100.00
30636;BME280;17400;52.392;9.750;2022-09-09T03:07:05;100234.53;;;15.89;100.00
30636;BME280;17400;52.392;9.750;2022-09-09T03:09:33;100240.84;;;15.89;100.00
30636;BME280;17400;52.392;9.750;2022-09-09T03:12:01;100248.53;;;15.92;100.00
30636;BME280;17400;52.392;9.750;2022-09-09T03:14:30;100249.72;;;15.96;100.00
30636;BME280;17400;52.392;9.750;2022-09-09T03:16:59;100251.38;;;15.97;100.00
30636;BME280;17400;52.392;9.750;2022-09-09T03:19:28;100243.56;;;15.89;100.00
30636;BME280;17400;52.392;9.750;2022-09-09T03:21:56;100248.78;;;15.91;100.00
30636;BME280;17400;52.392;9.750;2022-09-09T03:24:24;100236.22;;;15.90;100.00
30636;BME280;17400;52.392;9.750;2022-09-09T03:26:52;100238.78;;;15.96;100.00
30636;BME280;17400;52.392;9.750;2022-09-09T03:29:22;100239.03;;;15.95;100.00
30636;BME280;17400;52.392;9.750;2022-09-09T03:31:49;100242.94;;;15.99;100.00
30636;BME280;17400;52.392;9.750;2022-09-09T03:34:19;100248.38;;;15.99;100.00
30636;BME280;17400;52.392;9.750;2022-09-09T03:36:46;100238.63;;;16.03;100.00
30636;BME280;17400;52.392;9.750;2022-09-09T03:39:15;100251.22;;;16.04;100.00
30636;BME280;17400;52.392;9.750;2022-09-09T03:41:43;100242.78;;;16.06;100.00
30636;BME280;17400;52.392;9.750;2022-09-09T03:44:14;100247.75;;;16.09;100.00
30636;BME280;17400;52.392;9.750;2022-09-09T03:46:42;100243.13;;;16.09;100.00
30636;BME280;17400;52.392;9.750;2022-09-09T03:49:09;100237.66;;;16.09;100.00
30636;BME280;17400;52.392;9.750;2022-09-09T03:51:38;100243.38;;;16.08;100.00
30636;BME280;17400;52.392;9.750;2022-09-09T03:54:06;100238.72;;;16.08;100.00
30636;BME280;17400;52.392;9.750;2022-09-09T03:56:36;100238.16;;;16.06;100.00
30636;BME280;17400;52.392;9.750;2022-09-09T03:59:04;100231.84;;;16.06;100.00
30636;BME280;17400;52.392;9.750;2022-09-09T04:01:32;100236.00;;;16.08;100.00
30636;BME280;17400;52.392;9.750;2022-09-09T04:04:00;100240.41;;;16.09;100.00
30636;BME280;17400;52.392;9.750;2022-09-09T04:06:28;100248.59;;;16.09;100.00
30636;BME280;17400;52.392;9.750;2022-09-09T04:08:58;100241.56;;;16.13;100.00
30636;BME280;17400;52.392;9.750;2022-09-09T04:11:25;100245.09;;;16.14;100.00
30636;BME280;17400;52.392;9.750;2022-09-09T04:13:53;100246.44;;;16.11;100.00
30636;BME280;17400;52.392;9.750;2022-09-09T04:16:21;100235.53;;;16.11;100.00
30636;BME280;17400;52.392;9.750;2022-09-09T04:18:48;100235.03;;;16.14;100.00
30636;BME280;17400;52.392;9.750;2022-09-09T04:21:16;100234.19;;;16.14;100.00
30636;BME280;17400;52.392;9.750;2022-09-09T04:23:44;100238.00;;;16.13;100.00
30636;BME280;17400;52.392;9.750;2022-09-09T04:26:13;100237.75;;;16.14;100.00
30636;BME280;17400;52.392;9.750;2022-09-09T04:28:40;100234.19;;;16.14;100.00
30636;BME280;17400;52.392;9.750;2022-09-09T04:31:12;100241.56;;;16.13;100.00
30636;BME280;17400;52.392;9.750;2022-09-09T04:33:41;100237.41;;;16.11;100.00
30636;BME280;17400;52.392;9.750;2022-09-09T04:36:09;100243.72;;;16.11;100.00
30636;BME280;17400;52.392;9.750;2022-09-09T04:38:37;100246.91;;;16.08;100.00
30636;BME280;17400;52.392;9.750;2022-09-09T04:41:05;100242.06;;;16.10;100.00
30636;BME280;17400;52.392;9.750;2022-09-09T04:43:34;100248.34;;;16.11;100.00
30636;BME280;17400;52.392;9.750;2022-09-09T04:46:04;100246.75;;;16.15;100.00
30636;BME280;17400;52.392;9.750;2022-09-09T04:48:32;100253.16;;;16.21;100.00
30636;BME280;17400;52.392;9.750;2022-09-09T04:51:02;100260.25;;;16.22;100.00
30636;BME280;17400;52.392;9.750;2022-09-09T04:53:31;100252.06;;;16.22;100.00
30636;BME280;17400;52.392;9.750;2022-09-09T04:56:04;100261.34;;;16.21;100.00
30636;BME280;17400;52.392;9.750;2022-09-09T04:58:32;100262.53;;;16.25;100.00
30636;BME280;17400;52.392;9.750;2022-09-09T05:01:06;100265.81;;;16.27;100.00
30636;BME280;17400;52.392;9.750;2022-09-09T05:03:34;100264.16;;;16.26;100.00
30636;BME280;17400;52.392;9.750;2022-09-09T05:06:03;100262.63;;;16.30;100.00
30636;BME280;17400;52.392;9.750;2022-09-09T05:08:31;100259.63;;;16.31;100.00
30636;BME280;17400;52.392;9.750;2022-09-09T05:10:59;100260.34;;;16.27;100.00
30636;BME280;17400;52.392;9.750;2022-09-09T05:13:27;100263.94;;;16.27;100.00
30636;BME280;17400;52.392;9.750;2022-09-09T05:15:54;100269.16;;;16.29;100.00
30636;BME280;17400;52.392;9.750;2022-09-09T05:18:23;100266.41;;;16.29;100.00
30636;BME280;17400;52.392;9.750;2022-09-09T05:20:51;100260.44;;;16.32;100.00
30636;BME280;17400;52.392;9.750;2022-09-09T05:23:19;100266.75;;;16.32;100.00
30636;BME280;17400;52.392;9.750;2022-09-09T05:25:55;100262.69;;;16.35;100.00
30636;BME280;17400;52.392;9.750;2022-09-09T05:28:23;100268.13;;;16.35;100.00
30636;BME280;17400;52.392;9.750;2022-09-09T05:30:56;100270.66;;;16.37;100.00
30636;BME280;17400;52.392;9.750;2022-09-09T05:33:26;100273.69;;;16.40;100.00
30636;BME280;17400;52.392;9.750;2022-09-09T05:35:56;100274.28;;;16.42;100.00
30636;BME280;17400;52.392;9.750;2022-09-09T05:38:24;100272.13;;;16.44;100.00
30636;BME280;17400;52.392;9.750;2022-09-09T05:40:54;100273.31;;;16.48;100.00
30636;BME280;17400;52.392;9.750;2022-09-09T05:43:22;100272.38;;;16.43;100.00
30636;BME280;17400;52.392;9.750;2022-09-09T05:45:59;100277.59;;;16.44;100.00
30636;BME280;17400;52.392;9.750;2022-09-09T05:48:30;100277.28;;;16.41;100.00
30636;BME280;17400;52.392;9.750;2022-09-09T05:50:58;100270.97;;;16.40;100.00
30636;BME280;17400;52.392;9.750;2022-09-09T05:53:26;100278.44;;;16.45;100.00
30636;BME280;17400;52.392;9.750;2022-09-09T05:55:59;100276.25;;;16.47;100.00
30636;BME280;17400;52.392;9.750;2022-09-09T05:58:28;100285.06;;;16.49;100.00
30636;BME280;17400;52.392;9.750;2022-09-09T06:01:03;100290.88;;;16.53;100.00
30636;BME280;17400;52.392;9.750;2022-09-09T06:03:34;100289.75;;;16.54;100.00
30636;BME280;17400;52.392;9.750;2022-09-09T06:06:04;100296.63;;;16.56;100.00
30636;BME280;17400;52.392;9.750;2022-09-09T06:08:33;100290.97;;;16.58;100.00
30636;BME280;17400;52.392;9.750;2022-09-09T06:11:02;100288.69;;;16.55;100.00
30636;BME280;17400;52.392;9.750;2022-09-09T06:13:31;100289.84;;;16.59;100.00
30636;BME280;17400;52.392;9.750;2022-09-09T06:15:59;100287.72;;;16.61;100.00
30636;BME280;17400;52.392;9.750;2022-09-09T06:18:27;100291.69;;;16.70;100.00
30636;BME280;17400;52.392;9.750;2022-09-09T06:20:58;100292.13;;;16.79;100.00
30636;BME280;17400;52.392;9.750;2022-09-09T06:23:27;100296.31;;;16.87;100.00
30636;BME280;17400;52.392;9.750;2022-09-09T06:26:06;100299.75;;;16.94;100.00
30636;BME280;17400;52.392;9.750;2022-09-09T06:28:35;100291.56;;;16.94;100.00
30636;BME280;17400;52.392;9.750;2022-09-09T06:31:05;100292.88;;;16.91;100.00
30636;BME280;17400;52.392;9.750;2022-09-09T06:33:34;100297.72;;;16.89;100.00
30636;BME280;17400;52.392;9.750;2022-09-09T06:36:10;100299.00;;;16.81;100.00
30636;BME280;17400;52.392;9.750;2022-09-09T06:38:38;100299.97;;;16.75;100.00
30636;BME280;17400;52.392;9.750;2022-09-09T06:41:06;100304.13;;;16.78;100.00
30636;BME280;17400;52.392;9.750;2022-09-09T06:43:34;100292.13;;;16.79;100.00
30636;BME280;17400;52.392;9.750;2022-09-09T06:46:04;100287.47;;;16.79;100.00
30636;BME280;17400;52.392;9.750;2022-09-09T06:48:32;100284.47;;;16.81;100.00
30636;BME280;17400;52.392;9.750;2022-09-09T06:51:01;100283.84;;;16.74;100.00
30636;BME280;17400;52.392;9.750;2022-09-09T06:53:31;100280.59;;;16.77;100.00
30636;BME280;17400;52.392;9.750;2022-09-09T06:56:00;100286.41;;;16.80;100.00
30636;BME280;17400;52.392;9.750;2022-09-09T06:58:28;100295.75;;;16.85;100.00
30636;BME280;17400;52.392;9.750;2022-09-09T07:01:02;100293.03;;;16.85;100.00
30636;BME280;17400;52.392;9.750;2022-09-09T07:03:30;100294.78;;;16.91;100.00
30636;BME280;17400;52.392;9.750;2022-09-09T07:05:58;100294.19;;;17.06;100.00
30636;BME280;17400;52.392;9.750;2022-09-09T07:08:29;100288.88;;;17.16;100.00
30636;BME280;17400;52.392;9.750;2022-09-09T07:11:02;100292.84;;;17.25;100.00
30636;BME280;17400;52.392;9.750;2022-09-09T07:13:37;100289.34;;;17.30;100.00
30636;BME280;17400;52.392;9.750;2022-09-09T07:16:05;100288.47;;;17.46;100.00
30636;BME280;17400;52.392;9.750;2022-09-09T07:18:33;100288.72;;;17.67;100.00
30636;BME280;17400;52.392;9.750;2022-09-09T07:21:02;100285.09;;;17.84;100.00
30636;BME280;17400;52.392;9.750;2022-09-09T07:23:32;100291.53;;;17.94;100.00
30636;BME280;17400;52.392;9.750;2022-09-09T07:26:02;100301.50;;;18.06;100.00
30636;BME280;17400;52.392;9.750;2022-09-09T07:28:30;100302.47;;;18.17;100.00
30636;BME280;17400;52.392;9.750;2022-09-09T07:30:59;100302.00;;;18.25;100.00
30636;BME280;17400;52.392;9.750;2022-09-09T07:33:29;100300.72;;;18.33;100.00
30636;BME280;17400;52.392;9.750;2022-09-09T07:36:03;100305.13;;;18.39;100.00
30636;BME280;17400;52.392;9.750;2022-09-09T07:38:33;100301.59;;;18.38;100.00
30636;BME280;17400;52.392;9.750;2022-09-09T07:41:05;100302.72;;;18.42;100.00
30636;BME280;17400;52.392;9.750;2022-09-09T07:43:34;100297.81;;;18.44;100.00
30636;BME280;17400;52.392;9.750;2022-09-09T07:46:02;100296.22;;;18.48;100.00
30636;BME280;17400;52.392;9.750;2022-09-09T07:48:30;100300.56;;;18.44;100.00
30636;BME280;17400;52.392;9.750;2022-09-09T07:51:06;100293.56;;;18.59;100.00
30636;BME280;17400;52.392;9.750;2022-09-09T07:53:35;100294.97;;;18.67;100.00
30636;BME280;17400;52.392;9.750;2022-09-09T07:56:06;100305.03;;;18.56;100.00
30636;BME280;17400;52.392;9.750;2022-09-09T07:58:35;100310.28;;;18.62;100.00
30636;BME280;17400;52.392;9.750;2022-09-09T08:01:09;100307.38;;;18.74;100.00
30636;BME280;17400;52.392;9.750;2022-09-09T08:03:37;100307.53;;;18.90;100.00
30636;BME280;17400;52.392;9.750;2022-09-09T08:06:06;100302.63;;;18.92;100.00
30636;BME280;17400;52.392;9.750;2022-09-09T08:08:37;100307.03;;;18.98;100.00
30636;BME280;17400;52.392;9.750;2022-09-09T08:11:08;100315.13;;;18.82;100.00
30636;BME280;17400;52.392;9.750;2022-09-09T08:13:37;100312.84;;;18.74;100.00
30636;BME280;17400;52.392;9.750;2022-09-09T08:16:06;100316.63;;;18.63;100.00
30636;BME280;17400;52.392;9.750;2022-09-09T08:18:35;100311.19;;;18.68;100.00
30636;BME280;17400;52.392;9.750;2022-09-09T08:21:07;100307.59;;;18.95;100.00
30636;BME280;17400;52.392;9.750;2022-09-09T08:23:40;100308.56;;;19.16;100.00
30636;BME280;17400;52.392;9.750;2022-09-09T08:26:11;100303.38;;;19.25;100.00
30636;BME280;17400;52.392;9.750;2022-09-09T08:28:40;100308.69;;;19.42;100.00
30636;BME280;17400;52.392;9.750;2022-09-09T08:31:11;100300.69;;;19.35;100.00
30636;BME280;17400;52.392;9.750;2022-09-09T08:33:39;100306.69;;;19.27;100.00
30636;BME280;17400;52.392;9.750;2022-09-09T08:36:10;100312.69;;;19.19;100.00
30636;BME280;17400;52.392;9.750;2022-09-09T08:38:40;100311.56;;;19.14;100.00
30636;BME280;17400;52.392;9.750;2022-09-09T08:41:23;100311.47;;;19.04;100.00
30636;BME280;17400;52.392;9.750;2022-09-09T08:44:03;100324.03;;;18.95;100.00
30636;BME280;17400;52.392;9.750;2022-09-09T08:46:38;100314.59;;;18.86;100.00
30636;BME280;17400;52.392;9.750;2022-09-09T08:49:18;100323.38;;;18.88;100.00
30636;BME280;17400;52.392;9.750;2022-09-09T08:51:50;100324.94;;;19.06;100.00
30636;BME280;17400;52.392;9.750;2022-09-09T08:54:19;100335.31;;;18.98;100.00
30636;BME280;17400;52.392;9.750;2022-09-09T08:57:11;100339.72;;;19.05;100.00
30636;BME280;17400;52.392;9.750;2022-09-09T08:59:41;100343.31;;;19.05;100.00
30636;BME280;17400;52.392;9.750;2022-09-09T09:02:15;100342.22;;;19.06;100.00
30636;BME280;17400;52.392;9.750;2022-09-09T09:05:08;100338.91;;;19.04;100.00
30636;BME280;17400;52.392;9.750;2022-09-09T09:07:50;100337.09;;;18.88;100.00
30636;BME280;17400;52.392;9.750;2022-09-09T09:10:35;100339.66;;;18.94;100.00
30636;BME280;17400;52.392;9.750;2022-09-09T09:13:14;100341.63;;;18.99;100.00
30636;BME280;17400;52.392;9.750;2022-09-09T09:15:46;100335.59;;;19.02;100.00
30636;BME280;17400;52.392;9.750;2022-09-09T09:18:16;100335.09;;;19.05;100.00
30636;BME280;17400;52.392;9.750;2022-09-09T09:20:50;100340.09;;;19.13;100.00
30636;BME280;17400;52.392;9.750;2022-09-09T09:23:24;100337.41;;;19.24;100.00
30636;BME280;17400;52.392;9.750;2022-09-09T09:25:57;100339.03;;;19.25;100.00
30636;BME280;17400;52.392;9.750;2022-09-09T09:28:29;100337.16;;;19.25;100.00
30636;BME280;17400;52.392;9.750;2022-09-09T09:30:59;100345.38;;;19.25;100.00
30636;BME280;17400;52.392;9.750;2022-09-09T09:33:33;100345.88;;;19.22;100.00
30636;BME280;17400;52.392;9.750;2022-09-09T09:36:03;100336.59;;;19.28;100.00
30636;BME280;17400;52.392;9.750;2022-09-09T09:38:35;100338.34;;;19.40;100.00
30636;BME280;17400;52.392;9.750;2022-09-09T09:41:36;100336.72;;;19.44;100.00
30636;BME280;17400;52.392;9.750;2022-09-09T09:44:06;100346.38;;;19.52;100.00
30636;BME280;17400;52.392;9.750;2022-09-09T09:46:47;100338.63;;;19.48;100.00
30636;BME280;17400;52.392;9.750;2022-09-09T09:49:14;100332.66;;;19.57;100.00
30636;BME280;17400;52.392;9.750;2022-09-09T09:51:43;100326.66;;;19.65;100.00
30636;BME280;17400;52.392;9.750;2022-09-09T09:54:20;100331.09;;;19.76;100.00
30636;BME280;17400;52.392;9.750;2022-09-09T09:56:51;100320.94;;;19.77;100.00
30636;BME280;17400;52.392;9.750;2022-09-09T09:59:22;100323.75;;;19.82;100.00
30636;BME280;17400;52.392;9.750;2022-09-09T10:02:13;100324.06;;;19.96;100.00
30636;BME280;17400;52.392;9.750;2022-09-09T10:04:41;100321.91;;;20.03;100.00
30636;BME280;17400;52.392;9.750;2022-09-09T10:07:13;100317.25;;;20.09;100.00
30636;BME280;17400;52.392;9.750;2022-09-09T10:09:44;100325.78;;;20.12;100.00
30636;BME280;17400;52.392;9.750;2022-09-09T10:12:21;100311.75;;;20.14;100.00
30636;BME280;17400;52.392;9.750;2022-09-09T10:15:00;100314.25;;;20.26;100.00
30636;BME280;17400;52.392;9.750;2022-09-09T10:17:37;100314.56;;;20.29;100.00
30636;BME280;17400;52.392;9.750;2022-09-09T10:20:21;100312.03;;;20.23;100.00
30636;BME280;17400;52.392;9.750;2022-09-09T10:22:52;100308.72;;;20.10;100.00
30636;BME280;17400;52.392;9.750;2022-09-09T10:25:58;100314.22;;;20.16;100.00
30636;BME280;17400;52.392;9.750;2022-09-09T10:28:43;100304.88;;;20.11;100.00
30636;BME280;17400;52.392;9.750;2022-09-09T10:31:24;100310.94;;;20.24;100.00
30636;BME280;17400;52.392;9.750;2022-09-09T10:34:01;100306.56;;;20.18;100.00
30636;BME280;17400;52.392;9.750;2022-09-09T10:36:34;100316.41;;;20.13;100.00
30636;BME280;17400;52.392;9.750;2022-09-09T10:39:18;100313.91;;;19.91;100.00
30636;BME280;17400;52.392;9.750;2022-09-09T10:41:57;100314.66;;;19.81;100.00
30636;BME280;17400;52.392;9.750;2022-09-09T10:44:41;100313.81;;;19.76;100.00
30636;BME280;17400;52.392;9.750;2022-09-09T10:47:30;100314.06;;;19.69;100.00
30636;BME280;17400;52.392;9.750;2022-09-09T10:50:15;100307.19;;;19.72;100.00
30636;BME280;17400;52.392;9.750;2022-09-09T10:52:54;100316.25;;;19.72;100.00
30636;BME280;17400;52.392;9.750;2022-09-09T10:55:27;100329.97;;;19.72;100.00
30636;BME280;17400;52.392;9.750;2022-09-09T10:57:58;100329.94;;;19.67;100.00
30636;BME280;17400;52.392;9.750;2022-09-09T11:00:36;100331.59;;;19.63;100.00
30636;BME280;17400;52.392;9.750;2022-09-09T11:03:05;100322.25;;;19.64;100.00
30636;BME280;17400;52.392;9.750;2022-09-09T11:05:41;100320.63;;;19.68;100.00
30636;BME280;17400;52.392;9.750;2022-09-09T11:08:12;100321.72;;;19.67;100.00
30636;BME280;17400;52.392;9.750;2022-09-09T11:10:45;100320.88;;;19.61;100.00
30636;BME280;17400;52.392;9.750;2022-09-09T11:13:18;100318.94;;;19.57;100.00
30636;BME280;17400;52.392;9.750;2022-09-09T11:15:50;100324.38;;;19.46;100.00
30636;BME280;17400;52.392;9.750;2022-09-09T11:18:21;100318.53;;;19.38;100.00
30636;BME280;17400;52.392;9.750;2022-09-09T11:20:56;100305.91;;;19.37;100.00
30636;BME280;17400;52.392;9.750;2022-09-09T11:23:32;100300.69;;;19.35;100.00
30636;BME280;17400;52.392;9.750;2022-09-09T11:26:11;100310.00;;;19.34;100.00
30636;BME280;17400;52.392;9.750;2022-09-09T11:28:53;100321.00;;;19.34;100.00
30636;BME280;17400;52.392;9.750;2022-09-09T11:31:44;100327.47;;;19.18;100.00
30636;BME280;17400;52.392;9.750;2022-09-09T11:34:21;100340.59;;;19.05;100.00
30636;BME280;17400;52.392;9.750;2022-09-09T11:37:27;100341.13;;;19.07;100.00
30636;BME280;17400;52.392;9.750;2022-09-09T11:40:08;100352.00;;;18.92;100.00
30636;BME280;17400;52.392;9.750;2022-09-09T11:42:42;100346.25;;;18.66;100.00
30636;BME280;17400;52.392;9.750;2022-09-09T11:45:18;100351.13;;;18.59;100.00
30636;BME280;17400;52.392;9.750;2022-09-09T11:47:56;100350.00;;;18.60;100.00
30636;BME280;17400;52.392;9.750;2022-09-09T11:50:30;100351.69;;;18.61;100.00
30636;BME280;17400;52.392;9.750;2022-09-09T11:53:20;100357.06;;;18.51;100.00
30636;BME280;17400;52.392;9.750;2022-09-09T11:56:06;100360.69;;;18.29;100.00
30636;BME280;17400;52.392;9.750;2022-09-09T11:58:41;100350.72;;;18.23;100.00
30636;BME280;17400;52.392;9.750;2022-09-09T12:01:14;100355.78;;;18.31;100.00
30636;BME280;17400;52.392;9.750;2022-09-09T12:03:44;100349.31;;;18.42;100.00
30636;BME280;17400;52.392;9.750;2022-09-09T12:06:16;100342.78;;;18.48;100.00
30636;BME280;17400;52.392;9.750;2022-09-09T12:08:51;100335.97;;;18.51;100.00
30636;BME280;17400;52.392;9.750;2022-09-09T12:11:26;100330.19;;;18.47;100.00
30636;BME280;17400;52.392;9.750;2022-09-09T12:13:55;100334.56;;;18.48;100.00
30636;BME280;17400;52.392;9.750;2022-09-09T12:16:32;100325.81;;;18.52;100.00
30636;BME280;17400;52.392;9.750;2022-09-09T12:19:12;100337.63;;;18.52;100.00
30636;BME280;17400;52.392;9.750;2022-09-09T12:21:49;100340.38;;;18.52;100.00
30636;BME280;17400;52.392;9.750;2022-09-09T12:24:25;100333.00;;;18.58;100.00
30636;BME280;17400;52.392;9.750;2022-09-09T12:26:58;100344.09;;;18.73;100.00
30636;BME280;17400;52.392;9.750;2022-09-09T12:29:38;100348.03;;;18.82;100.00
30636;BME280;17400;52.392;9.750;2022-09-09T12:32:12;100348.72;;;18.95;100.00
30636;BME280;17400;52.392;9.750;2022-09-09T12:34:47;100334.88;;;19.12;100.00
30636;BME280;17400;52.392;9.750;2022-09-09T12:37:28;100333.34;;;19.31;100.00
30636;BME280;17400;52.392;9.750;2022-09-09T12:39:59;100337.78;;;19.43;100.00
30636;BME280;17400;52.392;9.750;2022-09-09T12:42:31;100338.97;;;19.57;100.00
30636;BME280;17400;52.392;9.750;2022-09-09T12:45:15;100320.66;;;19.73;100.00
30636;BME280;17400;52.392;9.750;2022-09-09T12:47:46;100317.41;;;19.81;100.00
30636;BME280;17400;52.392;9.750;2022-09-09T12:50:20;100316.84;;;19.79;100.00
30636;BME280;17400;52.392;9.750;2022-09-09T12:52:50;100314.22;;;20.10;100.00
30636;BME280;17400;52.392;9.750;2022-09-09T12:55:21;100314.22;;;20.10;100.00
30636;BME280;17400;52.392;9.750;2022-09-09T12:57:52;100305.97;;;20.05;100.00
30636;BME280;17400;52.392;9.750;2022-09-09T13:00:21;100322.16;;;20.07;100.00
30636;BME280;17400;52.392;9.750;2022-09-09T13:02:52;100319.41;;;20.07;100.00
30636;BME280;17400;52.392;9.750;2022-09-09T13:05:24;100304.31;;;20.09;100.00
30636;BME280;17400;52.392;9.750;2022-09-09T13:07:59;100310.91;;;19.98;100.00
30636;BME280;17400;52.392;9.750;2022-09-09T13:10:30;100314.41;;;19.83;100.00